Погода Пиньял-Новуна неделю

Сетубал, Португалия

20 - 26 июля
  • 20июля
    Сегодня
    +17°
    +31°
    Облачно с прояснениями
    ВремяПогодаТемператураВлажностьДавлениеВетер, м/сВероятность осадков
    01:00Ясно и безоблачно+20°C89 %759 мм3.4 м/с2 %
    04:00Пасмурно, сплошная облачность+19°C90 %759 мм4.3 м/с2 %
    07:00Пасмурно, сплошная облачность+20°C86 %759 мм3.8 м/с10 %
    10:00Облачно с прояснениями+25°C71 %759 мм4.7 м/с10 %
    13:00Облачно с прояснениями+30°C52 %759 мм5.2 м/с13 %
    16:00Ясно и безоблачно+30°C53 %758 мм5.3 м/с2 %
    19:00Ясно и безоблачно+26°C60 %758 мм5.9 м/с2 %
    22:00Ясно и безоблачно+22°C75 %759 мм4.6 м/с2 %
  • 21июля
    Воскресенье
    +15°
    +30°
    Ясно и безоблачно
    ВремяПогодаТемператураВлажностьДавлениеВетер, м/сВероятность осадков
    01:00Практически безоблачно+20°C86 %759 мм2.7 м/с4 %
    04:00Практически безоблачно+20°C90 %758 мм4.1 м/с2 %
    07:00Практически безоблачно+17°C89 %759 мм4.2 м/с2 %
    10:00Небольшая облачность+22°C63 %759 мм5.3 м/с2 %
    13:00Ясно и безоблачно+27°C47 %759 мм5.2 м/с2 %
    16:00Ясно и безоблачно+29°C33 %758 мм6.3 м/с2 %
    19:00Ясно и безоблачно+25°C46 %758 мм6.5 м/с2 %
    22:00Ясно и безоблачно+20°C68 %759 мм5.1 м/с2 %
  • 22июля
    Понедельник
    +19°
    +38°
    Ясно и безоблачно
    ВремяПогодаТемператураВлажностьДавлениеВетер, м/сВероятность осадков
    01:00Ясно и безоблачно+18°C78 %759 мм3.7 м/с2 %
    04:00Ясно и безоблачно+16°C84 %758 мм3.3 м/с2 %
    07:00Ясно и безоблачно+16°C89 %758 мм2.1 м/с2 %
    10:00Ясно и безоблачно+24°C57 %759 мм2.4 м/с2 %
    13:00Ясно и безоблачно+33°C27 %758 мм1.6 м/с2 %
    16:00Ясно и безоблачно+36°C17 %757 мм1.2 м/с2 %
    19:00Ясно и безоблачно+36°C30 %757 мм4.7 м/с2 %
    22:00Ясно и безоблачно+27°C34 %758 мм3.8 м/с2 %
  • 23июля
    Вторник
    +17°
    +37°
    Ясно и безоблачно
    ВремяПогодаТемператураВлажностьДавлениеВетер, м/сВероятность осадков
    01:00Ясно и безоблачно+23°C43 %758 мм2.4 м/с2 %
    04:00Ясно и безоблачно+22°C41 %757 мм1.3 м/с2 %
    07:00Ясно и безоблачно+20°C56 %758 мм0.9 м/с2 %
    10:00Ясно и безоблачно+28°C41 %759 мм1.2 м/с2 %
    13:00Ясно и безоблачно+34°C29 %759 мм2.7 м/с2 %
    16:00Ясно и безоблачно+36°C25 %759 мм3.4 м/с2 %
    19:00Ясно и безоблачно+35°C27 %758 мм2.8 м/с2 %
    22:00Ясно и безоблачно+26°C45 %759 мм1.8 м/с2 %
  • 24июля
    Среда
    +16°
    +40°
    Ясно и безоблачно
    ВремяПогодаТемператураВлажностьДавлениеВетер, м/сВероятность осадков
    01:00Ясно и безоблачно+23°C53 %759 мм0.3 м/с2 %
    04:00Практически безоблачно+19°C72 %758 мм1.4 м/с2 %
    07:00Ясно и безоблачно+19°C73 %758 мм1.7 м/с2 %
    10:00Ясно и безоблачно+28°C46 %758 мм1.0 м/с2 %
    13:00Ясно и безоблачно+36°C29 %758 мм1.2 м/с2 %
    16:00Ясно и безоблачно+40°C25 %757 мм2.1 м/с2 %
    19:00Ясно и безоблачно+36°C28 %756 мм4.4 м/с2 %
    22:00Ясно и безоблачно+25°C50 %757 мм2.4 м/с2 %
Мы используем cookies
Соглашаюсь